Time;durP1;ratioP1;P1;durP2;ratioP2;P2;SDS_P1;SDS_P2;PMS_P1;PMS_P2;Temp;Humidity;BMP_temperature;BMP_pressure;BME280_temperature;BME280_humidity;BME280_pressure;Samples;Min_cycle;Max_cycle;Signal;HPM_P1;HPM_P2
2022/10/23 00:01:36;;;;;;;;;;;12.70;99.90;;;;;;5002689;28;19921;-80
2022/10/23 00:04:06;;;;;;;;;;;12.70;99.90;;;;;;5000264;28;19970;-77
2022/10/23 00:06:33;;;;;;;;;;;12.70;99.90;;;;;;5000799;28;19921;-79
2022/10/23 00:08:59;;;;;;;;;;;12.70;99.90;;;;;;5002632;28;19909;-78
2022/10/23 00:11:27;;;;;;;;;;;12.70;99.90;;;;;;5007027;28;19913;-79
2022/10/23 00:13:53;;;;;;;;;;;12.70;99.90;;;;;;5002597;28;19918;-80
2022/10/23 00:16:19;;;;;;;;;;;12.60;99.90;;;;;;4998148;28;20271;-79
2022/10/23 00:18:45;;;;;;;;;;;12.60;99.90;;;;;;5001587;28;19992;-78
2022/10/23 00:21:12;;;;;;;;;;;12.60;99.90;;;;;;4999026;28;19914;-79
2022/10/23 00:23:37;;;;;;;;;;;12.50;99.90;;;;;;4999884;28;19910;-78
2022/10/23 00:26:03;;;;;;;;;;;12.50;99.90;;;;;;4999419;28;19997;-79
2022/10/23 00:28:29;;;;;;;;;;;12.50;99.90;;;;;;5001595;28;19925;-78
2022/10/23 00:30:55;;;;;;;;;;;12.50;99.90;;;;;;5006686;28;19914;-77
2022/10/23 00:33:20;;;;;;;;;;;12.40;99.90;;;;;;5002767;28;19971;-79
2022/10/23 00:35:46;;;;;;;;;;;12.40;99.90;;;;;;5004375;28;19925;-79
2022/10/23 00:38:12;;;;;;;;;;;12.40;99.90;;;;;;5008641;28;19910;-79
2022/10/23 00:40:38;;;;;;;;;;;12.30;99.90;;;;;;5006277;28;19920;-78
2022/10/23 00:43:05;;;;;;;;;;;12.30;99.90;;;;;;5005733;28;19948;-79
2022/10/23 00:45:32;;;;;;;;;;;12.30;99.90;;;;;;5004591;28;19921;-78
2022/10/23 00:47:58;;;;;;;;;;;12.30;99.90;;;;;;5011443;28;19917;-78
2022/10/23 00:50:26;;;;;;;;;;;12.20;99.90;;;;;;5008970;28;20284;-78
2022/10/23 00:52:53;;;;;;;;;;;12.20;99.90;;;;;;5009012;28;19960;-78
2022/10/23 00:55:20;;;;;;;;;;;12.20;99.90;;;;;;5003612;28;19964;-79
2022/10/23 00:57:46;;;;;;;;;;;12.20;99.90;;;;;;5003007;28;19910;-78
2022/10/23 01:00:15;;;;;;;;;;;12.10;99.90;;;;;;5007177;28;20005;-78
2022/10/23 01:02:41;;;;;;;;;;;12.10;99.90;;;;;;5006055;28;19910;-77
2022/10/23 01:05:07;;;;;;;;;;;12.10;99.90;;;;;;5006273;28;20330;-78
2022/10/23 01:07:38;;;;;;;;;;;12.00;99.90;;;;;;5022664;28;19910;-79
2022/10/23 01:10:04;;;;;;;;;;;12.00;99.90;;;;;;5006901;28;19914;-77
2022/10/23 01:12:45;;;;;;;;;;;12.00;99.90;;;;;;5004851;28;19910;-78
2022/10/23 01:15:20;;;;;;;;;;;11.90;99.90;;;;;;5000044;28;19964;-78
2022/10/23 01:17:55;;;;;;;;;;;11.90;99.90;;;;;;5018595;28;19924;-79
2022/10/23 01:20:21;;;;;;;;;;;11.80;99.90;;;;;;5002162;28;19913;-79
2022/10/23 01:23:03;;;;;;;;;;;11.80;99.90;;;;;;4999736;28;20306;-79
2022/10/23 01:25:48;;;;;;;;;;;11.80;99.90;;;;;;5002443;28;20012;-79
2022/10/23 01:28:19;;;;;;;;;;;11.80;99.90;;;;;;5004190;28;19918;-78
2022/10/23 01:30:45;;;;;;;;;;;11.80;99.90;;;;;;5000703;28;20015;-78
2022/10/23 01:33:16;;;;;;;;;;;11.70;99.90;;;;;;5106296;23;19916;-87
2022/10/23 01:35:52;;;;;;;;;;;11.70;99.90;;;;;;5059722;28;19980;-85
2022/10/23 01:38:37;;;;;;;;;;;11.70;99.90;;;;;;5042767;28;19931;-88
2022/10/23 01:41:17;;;;;;;;;;;11.70;99.90;;;;;;5059503;28;19905;-86
2022/10/23 01:43:43;;;;;;;;;;;11.70;99.90;;;;;;5046893;28;20020;-88
2022/10/23 01:46:14;;;;;;;;;;;11.60;99.90;;;;;;5040361;28;19957;-86
2022/10/23 01:48:43;;;;;;;;;;;11.60;99.90;;;;;;5058950;28;19902;-86
2022/10/23 01:51:10;;;;;;;;;;;11.60;99.90;;;;;;5059518;28;19912;-86
2022/10/23 01:53:40;;;;;;;;;;;11.50;99.90;;;;;;5058249;28;19905;-88
2022/10/23 01:56:14;;;;;;;;;;;11.50;99.90;;;;;;5057642;28;19908;-87
2022/10/23 01:58:42;;;;;;;;;;;11.50;99.90;;;;;;5058847;28;19905;-86
2022/10/23 02:01:09;;;;;;;;;;;11.50;99.90;;;;;;5060275;28;19903;-88
2022/10/23 02:03:46;;;;;;;;;;;11.40;99.90;;;;;;5044301;28;19905;-86
2022/10/23 02:06:12;;;;;;;;;;;11.40;99.90;;;;;;5059440;28;19908;-86
2022/10/23 02:08:38;;;;;;;;;;;11.40;99.90;;;;;;5059114;28;19898;-87
2022/10/23 02:11:10;;;;;;;;;;;11.30;99.90;;;;;;5043027;28;19952;-87
2022/10/23 02:13:59;;;;;;;;;;;11.30;99.90;;;;;;5053481;28;20003;-89
2022/10/23 02:16:37;;;;;;;;;;;11.40;99.90;;;;;;5040717;28;19921;-88
2022/10/23 02:19:11;;;;;;;;;;;11.40;99.90;;;;;;5034189;28;19921;-88
2022/10/23 02:21:49;;;;;;;;;;;11.40;99.90;;;;;;5042755;28;19941;-86
2022/10/23 02:24:18;;;;;;;;;;;11.30;99.90;;;;;;5042479;28;20148;-87
2022/10/23 02:26:52;;;;;;;;;;;11.30;99.90;;;;;;5042457;28;19909;-85
2022/10/23 02:29:29;;;;;;;;;;;11.30;99.90;;;;;;5042802;28;19981;-86
2022/10/23 02:31:57;;;;;;;;;;;11.20;99.90;;;;;;5058829;28;19928;-86
2022/10/23 02:34:24;;;;;;;;;;;11.20;99.90;;;;;;5059218;28;19902;-87
2022/10/23 02:36:50;;;;;;;;;;;11.10;99.90;;;;;;5042386;28;19971;-85
2022/10/23 02:39:20;;;;;;;;;;;11.10;99.90;;;;;;5058669;28;19924;-85
2022/10/23 02:41:49;;;;;;;;;;;11.10;99.90;;;;;;5056047;28;19932;-88
2022/10/23 02:44:33;;;;;;;;;;;11.00;99.90;;;;;;5052522;28;19963;-88
2022/10/23 02:47:18;;;;;;;;;;;11.00;99.90;;;;;;5034028;28;19913;-89
2022/10/23 02:50:02;;;;;;;;;;;11.00;99.90;;;;;;5053498;28;19928;-88
2022/10/23 02:52:37;;;;;;;;;;;10.90;99.90;;;;;;5053276;28;19913;-89
2022/10/23 02:55:03;;;;;;;;;;;10.90;99.90;;;;;;5052874;28;19916;-89
2022/10/23 02:57:50;;;;;;;;;;;10.90;99.90;;;;;;5040837;28;19916;-84
2022/10/23 03:00:17;;;;;;;;;;;10.90;99.90;;;;;;5041634;28;19968;-86
2022/10/23 03:02:55;;;;;;;;;;;10.90;99.90;;;;;;5041874;28;19909;-86
2022/10/23 03:05:23;;;;;;;;;;;10.80;99.90;;;;;;5034039;28;19918;-85
2022/10/23 03:07:49;;;;;;;;;;;10.80;99.90;;;;;;5045273;28;19909;-87
2022/10/23 03:10:19;;;;;;;;;;;10.80;99.90;;;;;;5045973;28;19921;-87
2022/10/23 03:12:49;;;;;;;;;;;10.80;99.90;;;;;;5045016;28;20285;-89
2022/10/23 03:15:20;;;;;;;;;;;10.80;99.90;;;;;;5029155;28;20015;-89
2022/10/23 03:17:48;;;;;;;;;;;10.70;99.90;;;;;;5039735;28;19963;-86
2022/10/23 03:20:15;;;;;;;;;;;10.70;99.90;;;;;;5057880;28;19913;-87
2022/10/23 03:22:44;;;;;;;;;;;10.70;99.90;;;;;;5058087;28;19932;-86
2022/10/23 03:25:10;;;;;;;;;;;10.70;99.90;;;;;;5058102;28;19904;-87
2022/10/23 03:27:36;;;;;;;;;;;10.70;99.90;;;;;;5041772;28;19932;-88
2022/10/23 03:30:05;;;;;;;;;;;10.70;99.90;;;;;;5057942;28;19922;-86
2022/10/23 03:32:32;;;;;;;;;;;10.70;99.90;;;;;;5057501;28;19972;-85
2022/10/23 03:34:59;;;;;;;;;;;10.70;99.90;;;;;;5041474;28;19908;-86
2022/10/23 03:37:25;;;;;;;;;;;10.70;99.90;;;;;;5057565;28;19980;-85
2022/10/23 03:39:54;;;;;;;;;;;10.70;99.90;;;;;;5040060;28;19913;-85
2022/10/23 03:42:22;;;;;;;;;;;10.60;99.90;;;;;;5041186;28;19936;-86
2022/10/23 03:44:48;;;;;;;;;;;10.60;99.90;;;;;;5041309;28;19897;-85
2022/10/23 03:47:17;;;;;;;;;;;10.60;99.90;;;;;;5041485;28;19901;-85
2022/10/23 03:49:43;;;;;;;;;;;10.50;99.90;;;;;;5041170;28;19961;-86
2022/10/23 03:52:21;;;;;;;;;;;10.50;99.90;;;;;;5058173;28;19972;-85
2022/10/23 03:54:49;;;;;;;;;;;10.50;99.90;;;;;;5041696;28;19913;-87
2022/10/23 03:57:18;;;;;;;;;;;10.50;99.90;;;;;;5040948;28;19901;-86
2022/10/23 03:59:45;;;;;;;;;;;10.50;99.90;;;;;;5057665;28;19906;-85
2022/10/23 04:02:11;;;;;;;;;;;10.50;99.90;;;;;;5056864;28;19901;-86
2022/10/23 04:04:37;;;;;;;;;;;10.50;99.90;;;;;;5041202;28;19906;-86
2022/10/23 04:07:03;;;;;;;;;;;10.50;99.90;;;;;;5057422;28;19940;-86
2022/10/23 04:09:32;;;;;;;;;;;10.50;99.90;;;;;;5057499;28;19925;-86
2022/10/23 04:12:02;;;;;;;;;;;10.40;99.90;;;;;;5041239;28;19908;-86
2022/10/23 04:14:28;;;;;;;;;;;10.40;99.90;;;;;;5040483;28;19912;-88
2022/10/23 04:16:54;;;;;;;;;;;10.40;99.90;;;;;;5040723;28;19913;-87
2022/10/23 04:19:23;;;;;;;;;;;10.40;99.90;;;;;;5056775;28;19928;-87
2022/10/23 04:21:49;;;;;;;;;;;10.40;99.90;;;;;;5040323;28;19906;-86
2022/10/23 04:24:18;;;;;;;;;;;10.30;99.90;;;;;;5041035;28;19921;-86
2022/10/23 04:26:44;;;;;;;;;;;10.30;99.90;;;;;;5040873;28;19905;-86
2022/10/23 04:29:13;;;;;;;;;;;10.30;99.90;;;;;;5057287;28;19909;-85
2022/10/23 04:31:39;;;;;;;;;;;10.30;99.90;;;;;;5040851;28;19897;-86
2022/10/23 04:34:05;;;;;;;;;;;10.30;99.90;;;;;;5057223;28;19929;-85
2022/10/23 04:36:31;;;;;;;;;;;10.20;99.90;;;;;;5074060;28;19924;-85
2022/10/23 04:39:05;;;;;;;;;;;10.20;99.90;;;;;;5057254;28;19936;-85
2022/10/23 04:41:31;;;;;;;;;;;10.10;99.90;;;;;;5037764;28;20069;-87
2022/10/23 04:43:59;;;;;;;;;;;10.00;99.90;;;;;;5037113;28;19916;-88
2022/10/23 04:46:28;;;;;;;;;;;10.00;99.90;;;;;;5053313;28;19980;-88
2022/10/23 04:48:54;;;;;;;;;;;9.90;99.90;;;;;;5037613;28;19981;-87
2022/10/23 04:51:27;;;;;;;;;;;9.90;99.90;;;;;;5056548;28;19905;-85
2022/10/23 04:54:02;;;;;;;;;;;9.80;99.90;;;;;;5052741;28;19917;-88
2022/10/23 04:56:40;;;;;;;;;;;9.80;99.90;;;;;;5051717;28;19914;-89
2022/10/23 04:59:16;;;;;;;;;;;9.70;99.90;;;;;;5032280;28;19935;-88
2022/10/23 05:01:43;;;;;;;;;;;9.70;99.90;;;;;;5031388;28;19913;-88
2022/10/23 05:04:09;;;;;;;;;;;9.60;99.90;;;;;;5047090;28;19963;-89
2022/10/23 05:07:02;;;;;;;;;;;9.60;99.90;;;;;;5031524;28;19905;-88
2022/10/23 05:09:42;;;;;;;;;;;9.50;99.90;;;;;;5056963;28;19901;-88
2022/10/23 05:12:28;;;;;;;;;;;9.50;99.90;;;;;;5057289;28;19917;-87
2022/10/23 05:14:54;;;;;;;;;;;9.50;99.90;;;;;;5041726;28;19929;-87
2022/10/23 05:17:33;;;;;;;;;;;9.40;99.90;;;;;;5043824;28;19959;-87
2022/10/23 05:20:11;;;;;;;;;;;9.40;99.90;;;;;;5043199;28;19901;-86
2022/10/23 05:22:41;;;;;;;;;;;9.30;99.90;;;;;;5059436;28;19996;-87
2022/10/23 05:25:11;;;;;;;;;;;9.30;99.90;;;;;;5040268;28;19963;-88
2022/10/23 05:27:38;;;;;;;;;;;9.30;99.90;;;;;;5040374;28;19910;-88
2022/10/23 05:30:08;;;;;;;;;;;9.20;99.90;;;;;;5056490;28;19939;-87
2022/10/23 05:32:36;;;;;;;;;;;9.20;99.90;;;;;;5039449;28;19921;-89
2022/10/23 05:35:07;;;;;;;;;;;9.20;99.90;;;;;;5038107;28;19992;-86
2022/10/23 05:37:33;;;;;;;;;;;9.10;99.90;;;;;;5043811;28;19903;-87
2022/10/23 05:40:16;;;;;;;;;;;9.10;99.90;;;;;;5045081;28;19897;-86
2022/10/23 05:42:46;;;;;;;;;;;9.00;99.90;;;;;;5043139;28;19925;-85
2022/10/23 05:45:19;;;;;;;;;;;9.00;99.90;;;;;;5060132;28;19992;-86
2022/10/23 05:48:20;;;;;;;;;;;9.10;99.90;;;;;;4981146;28;19926;-86
2022/10/23 05:51:22;;;;;;;;;;;9.10;99.90;;;;;;5053764;28;19928;-87
2022/10/23 05:54:08;;;;;;;;;;;9.10;99.90;;;;;;5057099;28;19921;-89
2022/10/23 05:56:52;;;;;;;;;;;9.10;99.90;;;;;;5049257;28;19913;-88
2022/10/23 05:59:27;;;;;;;;;;;9.10;99.90;;;;;;5030543;28;19959;-90
2022/10/23 06:02:05;;;;;;;;;;;9.20;99.90;;;;;;5050333;28;19914;-88
2022/10/23 06:04:55;;;;;;;;;;;9.20;99.90;;;;;;5036677;28;19913;-88
2022/10/23 06:07:42;;;;;;;;;;;9.20;99.90;;;;;;5049226;28;20088;-88
2022/10/23 06:10:15;;;;;;;;;;;9.20;99.90;;;;;;5032083;28;20313;-88
2022/10/23 06:12:56;;;;;;;;;;;9.20;99.90;;;;;;5032923;28;19917;-87
2022/10/23 06:15:30;;;;;;;;;;;9.20;99.90;;;;;;5032425;28;19921;-88
2022/10/23 06:18:33;;;;;;;;;;;9.20;99.90;;;;;;5031082;28;20012;-89
2022/10/23 06:21:14;;;;;;;;;;;9.20;99.90;;;;;;5032092;28;19924;-89
2022/10/23 06:23:45;;;;;;;;;;;9.20;99.90;;;;;;5036583;28;19913;-89
2022/10/23 06:26:42;;;;;;;;;;;9.20;99.90;;;;;;5036911;28;20031;-89
2022/10/23 06:29:59;;;;;;;;;;;9.20;99.90;;;;;;5032766;28;19944;-89
2022/10/23 06:32:42;;;;;;;;;;;9.30;99.90;;;;;;5041113;28;19968;-88
2022/10/23 06:35:32;;;;;;;;;;;9.40;99.90;;;;;;5059307;28;19948;-88
2022/10/23 06:38:15;;;;;;;;;;;9.40;99.90;;;;;;5058805;28;19922;-87
2022/10/23 06:41:32;;;;;;;;;;;9.50;99.90;;;;;;5041739;28;19902;-88
2022/10/23 06:44:39;;;;;;;;;;;9.70;99.90;;;;;;5047840;28;19913;-89
2022/10/23 06:47:29;;;;;;;;;;;9.90;99.90;;;;;;5032452;28;19917;-89
2022/10/23 06:50:24;;;;;;;;;;;9.90;99.90;;;;;;5048370;28;19919;-88
2022/10/23 06:53:11;;;;;;;;;;;9.90;99.90;;;;;;5029189;28;20424;-90
2022/10/23 06:56:24;;;;;;;;;;;10.00;99.90;;;;;;5049328;28;19940;-88
2022/10/23 07:02:46;;;;;;;;;;;10.20;99.90;;;;;;5040552;28;19973;-87
2022/10/23 07:05:27;;;;;;;;;;;10.20;99.90;;;;;;5041131;28;19932;-89
2022/10/23 07:08:11;;;;;;;;;;;10.30;99.90;;;;;;5039729;28;19905;-89
2022/10/23 07:11:14;;;;;;;;;;;10.30;99.90;;;;;;5047666;28;19977;-88
2022/10/23 07:14:33;;;;;;;;;;;10.40;99.90;;;;;;5035676;28;19960;-88
2022/10/23 07:16:53;;;;;;;;;;;10.60;99.90;;;;;;5049072;28;19913;-89
2022/10/23 07:19:59;;;;;;;;;;;10.70;99.90;;;;;;5046005;28;19963;-90
2022/10/23 07:22:44;;;;;;;;;;;10.80;99.90;;;;;;5026040;28;19913;-89
2022/10/23 07:28:35;;;;;;;;;;;11.10;99.90;;;;;;5053804;28;19921;-89
2022/10/23 07:31:30;;;;;;;;;;;11.20;99.90;;;;;;5037977;28;19917;-89
2022/10/23 07:34:14;;;;;;;;;;;11.10;99.90;;;;;;5053363;23;19932;-80
2022/10/23 07:36:41;;;;;;;;;;;11.10;99.90;;;;;;5018116;28;20008;-80
2022/10/23 07:39:07;;;;;;;;;;;11.20;99.90;;;;;;5018256;28;19980;-80
2022/10/23 07:41:39;;;;;;;;;;;11.20;99.90;;;;;;5018334;28;19936;-79
2022/10/23 07:44:05;;;;;;;;;;;11.20;99.90;;;;;;5024074;28;19914;-80
2022/10/23 07:46:31;;;;;;;;;;;11.20;99.90;;;;;;5023966;28;19910;-78
2022/10/23 07:48:56;;;;;;;;;;;11.20;99.90;;;;;;5018961;28;19913;-78
2022/10/23 07:51:22;;;;;;;;;;;11.10;99.90;;;;;;5020379;28;19979;-80
2022/10/23 07:53:54;;;;;;;;;;;11.10;99.90;;;;;;5019655;28;19913;-81
2022/10/23 07:56:38;;;;;;;;;;;11.20;99.90;;;;;;5026730;28;20411;-78
2022/10/23 07:59:22;;;;;;;;;;;11.40;99.90;;;;;;5028154;28;19913;-79
2022/10/23 08:01:52;;;;;;;;;;;11.50;99.90;;;;;;5024416;28;19919;-80
2022/10/23 08:04:19;;;;;;;;;;;11.60;99.90;;;;;;5018946;28;20007;-79
2022/10/23 08:06:59;;;;;;;;;;;11.60;99.90;;;;;;5023574;28;20369;-78
2022/10/23 08:09:27;;;;;;;;;;;11.70;99.90;;;;;;5019081;28;19918;-79
2022/10/23 08:11:53;;;;;;;;;;;11.80;99.90;;;;;;5002391;28;19910;-80
2022/10/23 08:14:21;;;;;;;;;;;11.90;99.90;;;;;;5004017;28;19954;-80
2022/10/23 08:16:48;;;;;;;;;;;12.10;99.90;;;;;;5020206;28;19913;-80
2022/10/23 08:19:16;;;;;;;;;;;12.20;99.90;;;;;;5024153;28;19977;-80
2022/10/23 08:21:44;;;;;;;;;;;12.20;99.90;;;;;;5025224;28;19910;-78
2022/10/23 08:24:12;;;;;;;;;;;12.30;99.90;;;;;;5022161;28;19924;-80
2022/10/23 08:26:39;;;;;;;;;;;12.30;99.90;;;;;;5022969;28;19909;-80
2022/10/23 08:29:05;;;;;;;;;;;12.30;99.90;;;;;;5019037;28;20072;-80
2022/10/23 08:31:31;;;;;;;;;;;12.30;99.90;;;;;;5022618;28;19909;-79
2022/10/23 08:34:29;;;;;;;;;;;12.50;99.90;;;;;;5020741;28;19917;-79
2022/10/23 08:36:55;;;;;;;;;;;13.50;99.90;;;;;;5021191;28;20416;-79
2022/10/23 08:39:22;;;;;;;;;;;14.70;99.90;;;;;;5021366;28;19909;-79
2022/10/23 08:42:19;;;;;;;;;;;16.00;99.90;;;;;;5025214;28;19917;-78
2022/10/23 08:44:53;;;;;;;;;;;17.00;99.90;;;;;;5026140;28;19921;-79
2022/10/23 08:47:28;;;;;;;;;;;17.50;99.90;;;;;;5004258;28;20029;-80
2022/10/23 08:50:27;;;;;;;;;;;18.00;99.90;;;;;;5024138;28;19916;-80
2022/10/23 08:53:04;;;;;;;;;;;19.50;99.90;;;;;;5025270;28;19913;-79
2022/10/23 08:55:33;;;;;;;;;;;20.10;99.90;;;;;;5024783;28;19929;-80
2022/10/23 08:58:05;;;;;;;;;;;20.40;99.90;;;;;;5023176;28;20028;-80
2022/10/23 09:00:31;;;;;;;;;;;20.40;99.90;;;;;;5024455;28;19913;-79
2022/10/23 09:02:59;;;;;;;;;;;20.50;99.90;;;;;;5024369;28;19915;-81
2022/10/23 09:05:25;;;;;;;;;;;21.00;99.90;;;;;;5023488;28;19924;-80
2022/10/23 09:08:00;;;;;;;;;;;21.40;99.90;;;;;;5028508;28;19909;-79
2022/10/23 09:10:31;;;;;;;;;;;22.10;99.90;;;;;;5027255;28;19913;-80
2022/10/23 09:13:10;;;;;;;;;;;22.90;98.90;;;;;;5022641;28;19924;-79
2022/10/23 09:15:46;;;;;;;;;;;23.50;98.00;;;;;;5022983;28;19917;-79
2022/10/23 09:18:13;;;;;;;;;;;24.30;96.00;;;;;;5022894;28;19946;-80
2022/10/23 09:20:39;;;;;;;;;;;24.70;94.50;;;;;;5021925;28;20320;-80
2022/10/23 09:23:25;;;;;;;;;;;24.20;94.50;;;;;;5031742;28;20012;-78
2022/10/23 09:25:55;;;;;;;;;;;22.40;96.40;;;;;;5029631;28;19913;-79
2022/10/23 09:28:22;;;;;;;;;;;21.40;98.60;;;;;;5028832;28;19988;-81
2022/10/23 09:30:48;;;;;;;;;;;21.40;99.00;;;;;;5028239;28;19909;-81
2022/10/23 09:33:24;;;;;;;;;;;21.70;98.90;;;;;;5022353;28;19928;-79
2022/10/23 09:35:51;;;;;;;;;;;22.50;97.90;;;;;;5027797;28;19924;-80
2022/10/23 09:38:31;;;;;;;;;;;23.00;97.00;;;;;;5031616;28;20308;-79
2022/10/23 09:41:17;;;;;;;;;;;24.40;95.70;;;;;;5023646;28;19914;-81
2022/10/23 09:43:42;;;;;;;;;;;25.10;94.20;;;;;;5024573;28;20291;-80
2022/10/23 09:46:09;;;;;;;;;;;25.20;93.20;;;;;;5007210;28;19939;-83
2022/10/23 09:48:37;;;;;;;;;;;24.00;94.20;;;;;;5023854;28;20388;-80
2022/10/23 09:51:14;;;;;;;;;;;22.60;96.20;;;;;;5007651;28;19910;-79
2022/10/23 09:53:48;;;;;;;;;;;21.20;98.70;;;;;;5024440;28;20055;-81
2022/10/23 09:56:28;;;;;;;;;;;20.60;99.90;;;;;;5025246;28;19917;-80
2022/10/23 09:59:04;;;;;;;;;;;20.30;99.90;;;;;;5011375;28;19972;-80
2022/10/23 10:01:31;;;;;;;;;;;19.60;99.90;;;;;;5028037;28;19977;-80
2022/10/23 10:04:34;;;;;;;;;;;19.00;99.90;;;;;;5033899;28;19901;-79
2022/10/23 10:07:01;;;;;;;;;;;18.30;99.90;;;;;;5032760;28;19913;-80
2022/10/23 10:09:27;;;;;;;;;;;17.80;99.90;;;;;;5027011;28;20417;-81
2022/10/23 10:11:54;;;;;;;;;;;17.30;99.90;;;;;;5025886;28;19959;-80
2022/10/23 10:14:38;;;;;;;;;;;17.10;99.90;;;;;;5030127;28;20364;-81
2022/10/23 10:17:17;;;;;;;;;;;17.10;99.90;;;;;;5029192;28;19941;-79
2022/10/23 10:20:01;;;;;;;;;;;17.20;99.90;;;;;;5026450;28;19913;-80
2022/10/23 10:22:46;;;;;;;;;;;17.00;99.90;;;;;;5023028;28;19913;-79
2022/10/23 10:25:15;;;;;;;;;;;16.70;99.90;;;;;;5027266;28;19936;-81
2022/10/23 10:27:48;;;;;;;;;;;16.50;99.90;;;;;;5025760;28;19909;-81
2022/10/23 10:30:17;;;;;;;;;;;16.40;99.90;;;;;;5022800;28;19957;-80
2022/10/23 10:32:42;;;;;;;;;;;16.60;99.90;;;;;;5022431;28;19968;-79
2022/10/23 10:35:26;;;;;;;;;;;17.00;99.90;;;;;;5021911;28;19918;-81
2022/10/23 10:38:04;;;;;;;;;;;17.20;99.90;;;;;;5021158;28;19928;-79
2022/10/23 10:40:34;;;;;;;;;;;17.70;99.90;;;;;;5021904;28;19924;-79
2022/10/23 10:43:18;;;;;;;;;;;18.50;99.90;;;;;;5020783;28;20370;-80
2022/10/23 10:45:48;;;;;;;;;;;19.40;99.90;;;;;;5023247;28;19936;-81
2022/10/23 10:48:22;;;;;;;;;;;20.80;99.90;;;;;;5032973;28;19932;-78
2022/10/23 10:51:11;;;;;;;;;;;22.50;99.90;;;;;;5036325;28;19968;-80
2022/10/23 10:53:48;;;;;;;;;;;23.50;99.40;;;;;;5034029;28;19955;-78
2022/10/23 10:56:16;;;;;;;;;;;24.00;97.60;;;;;;5027232;28;19925;-80
2022/10/23 10:58:56;;;;;;;;;;;24.00;97.20;;;;;;5024157;28;19914;-79
2022/10/23 11:01:25;;;;;;;;;;;23.90;96.40;;;;;;5025704;28;19913;-80
2022/10/23 11:03:55;;;;;;;;;;;23.90;96.50;;;;;;5021632;28;19910;-78
2022/10/23 11:06:23;;;;;;;;;;;25.60;95.00;;;;;;5025125;28;19935;-79
2022/10/23 11:08:49;;;;;;;;;;;27.10;92.70;;;;;;5027395;28;19969;-79
2022/10/23 11:11:17;;;;;;;;;;;26.00;92.20;;;;;;5028225;28;19914;-80
2022/10/23 11:13:43;;;;;;;;;;;26.30;91.60;;;;;;5024280;28;19910;-79
2022/10/23 11:16:09;;;;;;;;;;;26.50;90.90;;;;;;5022194;28;20007;-80
2022/10/23 11:18:35;;;;;;;;;;;26.60;90.40;;;;;;5004771;28;20407;-79
2022/10/23 11:21:09;;;;;;;;;;;26.80;89.50;;;;;;5021109;28;19914;-80
2022/10/23 11:23:44;;;;;;;;;;;27.20;88.20;;;;;;5019185;28;19913;-79
2022/10/23 11:26:30;;;;;;;;;;;27.40;87.40;;;;;;5018532;28;19920;-80
2022/10/23 11:28:56;;;;;;;;;;;27.10;86.30;;;;;;5008022;28;20384;-80
2022/10/23 11:31:33;;;;;;;;;;;27.00;86.40;;;;;;5022635;28;19929;-80
2022/10/23 11:34:05;;;;;;;;;;;26.70;87.40;;;;;;5022250;28;20004;-80
2022/10/23 11:36:41;;;;;;;;;;;26.50;87.30;;;;;;5023679;28;20151;-79
2022/10/23 11:39:19;;;;;;;;;;;26.30;88.30;;;;;;5023044;28;19918;-78
2022/10/23 11:41:53;;;;;;;;;;;26.40;87.40;;;;;;5024208;28;19941;-79
2022/10/23 11:44:27;;;;;;;;;;;26.20;87.90;;;;;;5023614;28;19921;-79
2022/10/23 11:47:00;;;;;;;;;;;26.00;88.50;;;;;;5021938;28;19913;-79
2022/10/23 11:49:26;;;;;;;;;;;26.00;88.80;;;;;;5021275;28;19917;-79
2022/10/23 11:52:03;;;;;;;;;;;25.50;88.60;;;;;;5024004;28;19910;-79
2022/10/23 11:54:29;;;;;;;;;;;25.10;90.20;;;;;;5022920;28;19921;-80
2022/10/23 11:57:04;;;;;;;;;;;24.60;90.60;;;;;;5022681;28;20404;-79
2022/10/23 11:59:35;;;;;;;;;;;23.80;91.60;;;;;;5021076;28;19914;-80
2022/10/23 12:02:02;;;;;;;;;;;22.40;93.60;;;;;;5022207;28;20420;-80
2022/10/23 12:04:38;;;;;;;;;;;21.40;95.90;;;;;;5024027;28;19973;-81
2022/10/23 12:07:13;;;;;;;;;;;21.60;96.60;;;;;;5025811;28;19913;-79
2022/10/23 12:09:40;;;;;;;;;;;21.30;97.10;;;;;;5023754;28;19913;-77
2022/10/23 12:12:06;;;;;;;;;;;21.10;98.10;;;;;;5026510;28;20340;-80
2022/10/23 12:14:34;;;;;;;;;;;20.50;99.60;;;;;;5020863;28;19964;-79
2022/10/23 12:17:00;;;;;;;;;;;20.10;99.90;;;;;;5020316;28;19937;-78
2022/10/23 12:19:28;;;;;;;;;;;19.90;99.90;;;;;;5024618;28;19920;-81
2022/10/23 12:21:56;;;;;;;;;;;19.70;99.90;;;;;;5032151;28;19909;-79
2022/10/23 12:24:38;;;;;;;;;;;19.30;99.90;;;;;;5037154;28;19945;-78
2022/10/23 12:27:18;;;;;;;;;;;19.00;99.90;;;;;;5038596;28;19908;-78
2022/10/23 12:29:53;;;;;;;;;;;18.30;99.90;;;;;;5019759;28;19902;-80
2022/10/23 12:32:28;;;;;;;;;;;17.80;99.90;;;;;;5036994;28;20397;-79
2022/10/23 12:35:00;;;;;;;;;;;17.50;99.90;;;;;;5032256;28;19932;-79
2022/10/23 12:37:51;;;;;;;;;;;17.10;99.90;;;;;;5031323;28;20338;-80
2022/10/23 12:40:17;;;;;;;;;;;17.00;99.90;;;;;;5029509;28;19920;-80
2022/10/23 12:42:51;;;;;;;;;;;16.70;99.90;;;;;;5025002;28;20226;-80
2022/10/23 12:45:17;;;;;;;;;;;16.40;99.90;;;;;;5026050;28;19992;-79
2022/10/23 12:47:43;;;;;;;;;;;16.20;99.90;;;;;;5026609;28;19910;-80
2022/10/23 12:50:17;;;;;;;;;;;16.10;99.90;;;;;;5026445;28;19980;-79
2022/10/23 12:52:49;;;;;;;;;;;16.00;99.90;;;;;;5030827;28;19978;-80
2022/10/23 12:55:15;;;;;;;;;;;16.00;99.90;;;;;;5023407;28;19935;-79
2022/10/23 12:57:42;;;;;;;;;;;15.90;99.90;;;;;;5023817;28;19988;-81
2022/10/23 13:00:11;;;;;;;;;;;15.80;99.90;;;;;;5027735;28;20304;-80
2022/10/23 13:02:37;;;;;;;;;;;15.70;99.90;;;;;;5027344;28;20416;-80
2022/10/23 13:05:07;;;;;;;;;;;15.60;99.90;;;;;;5024452;28;19949;-80
2022/10/23 13:07:35;;;;;;;;;;;15.60;99.90;;;;;;5024091;28;19913;-81
2022/10/23 13:10:03;;;;;;;;;;;15.70;99.90;;;;;;5024812;28;19940;-80
2022/10/23 13:12:34;;;;;;;;;;;15.70;99.90;;;;;;5024539;28;19913;-81
2022/10/23 13:15:06;;;;;;;;;;;15.60;99.90;;;;;;5009069;28;19917;-82
2022/10/23 13:17:39;;;;;;;;;;;15.70;99.90;;;;;;5025269;28;19913;-81
2022/10/23 13:20:19;;;;;;;;;;;15.90;99.90;;;;;;5024806;28;20059;-80
2022/10/23 13:22:46;;;;;;;;;;;16.20;99.90;;;;;;5023909;28;19960;-79
2022/10/23 13:25:38;;;;;;;;;;;16.10;99.90;;;;;;5024372;28;19909;-79
2022/10/23 13:28:07;;;;;;;;;;;16.10;99.90;;;;;;5028242;28;19985;-79
2022/10/23 13:30:36;;;;;;;;;;;16.20;99.90;;;;;;5028150;28;19936;-79
2022/10/23 13:49:07;;;;;;;;;;;16.50;99.90;;;;;;4551780;26;19957;-86
2022/10/23 13:52:22;;;;;;;;;;;16.30;99.90;;;;;;5008233;28;19906;-87
2022/10/23 13:55:20;;;;;;;;;;;16.20;99.90;;;;;;4929587;28;19915;-86
2022/10/23 13:58:34;;;;;;;;;;;15.90;99.90;;;;;;4950957;28;19958;-86
2022/10/23 14:01:03;;;;;;;;;;;15.70;99.90;;;;;;5003533;23;19906;-81
2022/10/23 14:03:29;;;;;;;;;;;15.70;99.90;;;;;;5055384;28;19982;-80
2022/10/23 14:05:54;;;;;;;;;;;15.60;99.90;;;;;;5054041;28;19913;-81
2022/10/23 14:08:20;;;;;;;;;;;15.50;99.90;;;;;;5052830;28;19909;-79
2022/10/23 14:10:46;;;;;;;;;;;15.30;99.90;;;;;;5053907;28;19980;-81
2022/10/23 14:13:11;;;;;;;;;;;15.20;99.90;;;;;;5066744;28;19927;-82
2022/10/23 14:15:37;;;;;;;;;;;15.10;99.90;;;;;;5068539;28;19927;-80
2022/10/23 14:18:03;;;;;;;;;;;15.10;99.90;;;;;;5069633;28;19904;-80
2022/10/23 14:20:29;;;;;;;;;;;14.90;99.90;;;;;;5071207;28;20362;-81
2022/10/23 14:22:54;;;;;;;;;;;14.80;99.90;;;;;;5050052;28;19981;-81
2022/10/23 14:25:20;;;;;;;;;;;14.80;99.90;;;;;;5064601;28;19913;-81
2022/10/23 14:27:46;;;;;;;;;;;14.70;99.90;;;;;;5050697;28;19941;-78
2022/10/23 14:30:12;;;;;;;;;;;14.70;99.90;;;;;;5073364;28;19916;-79
2022/10/23 14:32:37;;;;;;;;;;;14.70;99.90;;;;;;5056602;28;19908;-79
2022/10/23 14:35:03;;;;;;;;;;;14.70;99.90;;;;;;5072335;28;19921;-79
2022/10/23 14:37:31;;;;;;;;;;;14.60;99.90;;;;;;5052091;28;19915;-80
2022/10/23 14:39:57;;;;;;;;;;;14.50;99.90;;;;;;5065219;28;19947;-79
2022/10/23 14:42:22;;;;;;;;;;;14.50;99.90;;;;;;5069742;28;19908;-79
2022/10/23 14:44:48;;;;;;;;;;;14.50;99.90;;;;;;5054664;28;19913;-80
2022/10/23 14:47:15;;;;;;;;;;;14.50;99.90;;;;;;5070934;28;19909;-81
2022/10/23 14:49:41;;;;;;;;;;;14.40;99.90;;;;;;5073068;28;19912;-78
2022/10/23 14:52:07;;;;;;;;;;;14.40;99.90;;;;;;5076186;28;19915;-79
2022/10/23 14:54:35;;;;;;;;;;;14.30;99.90;;;;;;5077105;28;19924;-79
2022/10/23 14:57:01;;;;;;;;;;;14.40;99.90;;;;;;5078104;28;19901;-80
2022/10/23 14:59:26;;;;;;;;;;;14.30;99.90;;;;;;5071801;28;20007;-79
2022/10/23 15:01:52;;;;;;;;;;;14.30;99.90;;;;;;5071559;28;19924;-81
2022/10/23 15:04:19;;;;;;;;;;;14.30;99.90;;;;;;5070878;28;19924;-80
2022/10/23 15:06:46;;;;;;;;;;;14.20;99.90;;;;;;5072673;28;19897;-80
2022/10/23 15:09:12;;;;;;;;;;;14.10;99.90;;;;;;5071173;28;19974;-80
2022/10/23 15:11:38;;;;;;;;;;;14.00;99.90;;;;;;5037832;28;19988;-80
2022/10/23 15:14:03;;;;;;;;;;;14.00;99.90;;;;;;5070767;28;19917;-81
2022/10/23 15:16:29;;;;;;;;;;;13.90;99.90;;;;;;5052045;28;20319;-79